sensor_id;sensor_type;location;lat;lon;timestamp;P1;durP1;ratioP1;P2;durP2;ratioP2
52642;SDS011;38531;53.296;6.614;2023-10-09T00:01:42;1233.13;;;584.63;;
52642;SDS011;38531;53.296;6.614;2023-10-09T00:04:09;1251.80;;;590.10;;
52642;SDS011;38531;53.296;6.614;2023-10-09T00:06:36;1258.67;;;584.87;;
52642;SDS011;38531;53.296;6.614;2023-10-09T00:09:05;1254.90;;;563.43;;
52642;SDS011;38531;53.296;6.614;2023-10-09T00:11:50;1243.87;;;581.87;;
52642;SDS011;38531;53.296;6.614;2023-10-09T00:14:29;1255.70;;;560.40;;
52642;SDS011;38531;53.296;6.614;2023-10-09T00:16:57;1253.70;;;590.83;;
52642;SDS011;38531;53.296;6.614;2023-10-09T00:19:37;1246.63;;;576.60;;
52642;SDS011;38531;53.296;6.614;2023-10-09T00:22:03;1272.23;;;564.83;;
52642;SDS011;38531;53.296;6.614;2023-10-09T00:24:33;1245.37;;;572.90;;
52642;SDS011;38531;53.296;6.614;2023-10-09T00:26:58;1243.70;;;575.13;;
52642;SDS011;38531;53.296;6.614;2023-10-09T00:29:36;1233.00;;;575.50;;
52642;SDS011;38531;53.296;6.614;2023-10-09T00:32:09;1237.10;;;572.07;;
52642;SDS011;38531;53.296;6.614;2023-10-09T00:34:52;1233.17;;;569.17;;
52642;SDS011;38531;53.296;6.614;2023-10-09T00:37:18;1277.30;;;571.47;;
52642;SDS011;38531;53.296;6.614;2023-10-09T00:39:51;1234.07;;;572.40;;
52642;SDS011;38531;53.296;6.614;2023-10-09T00:42:24;1271.17;;;569.13;;
52642;SDS011;38531;53.296;6.614;2023-10-09T00:44:58;1265.00;;;569.70;;
52642;SDS011;38531;53.296;6.614;2023-10-09T00:47:30;1232.82;;;569.38;;
52642;SDS011;38531;53.296;6.614;2023-10-09T00:50:00;1262.77;;;562.50;;
52642;SDS011;38531;53.296;6.614;2023-10-09T00:52:54;1264.57;;;561.47;;
52642;SDS011;38531;53.296;6.614;2023-10-09T00:55:28;1264.10;;;563.33;;
52642;SDS011;38531;53.296;6.614;2023-10-09T00:58:09;1220.37;;;554.07;;
52642;SDS011;38531;53.296;6.614;2023-10-09T01:00:43;1215.40;;;556.23;;
52642;SDS011;38531;53.296;6.614;2023-10-09T01:03:09;1212.87;;;562.40;;
52642;SDS011;38531;53.296;6.614;2023-10-09T01:05:42;1216.80;;;569.00;;
52642;SDS011;38531;53.296;6.614;2023-10-09T01:08:40;1216.07;;;566.00;;
52642;SDS011;38531;53.296;6.614;2023-10-09T01:11:15;1253.20;;;564.47;;
52642;SDS011;38531;53.296;6.614;2023-10-09T01:13:48;1246.53;;;553.43;;
52642;SDS011;38531;53.296;6.614;2023-10-09T01:16:18;1250.83;;;562.67;;
52642;SDS011;38531;53.296;6.614;2023-10-09T01:18:47;1253.37;;;556.93;;
52642;SDS011;38531;53.296;6.614;2023-10-09T01:21:22;1252.33;;;559.43;;
52642;SDS011;38531;53.296;6.614;2023-10-09T01:23:50;1218.07;;;559.53;;
52642;SDS011;38531;53.296;6.614;2023-10-09T01:26:35;1221.60;;;566.67;;
52642;SDS011;38531;53.296;6.614;2023-10-09T01:29:09;1250.40;;;554.73;;
52642;SDS011;38531;53.296;6.614;2023-10-09T01:31:43;1217.17;;;562.63;;
52642;SDS011;38531;53.296;6.614;2023-10-09T01:34:22;1252.07;;;563.17;;
52642;SDS011;38531;53.296;6.614;2023-10-09T01:37:03;1253.07;;;558.17;;
52642;SDS011;38531;53.296;6.614;2023-10-09T01:39:48;1251.70;;;562.37;;
52642;SDS011;38531;53.296;6.614;2023-10-09T01:42:15;1218.43;;;563.53;;
52642;SDS011;38531;53.296;6.614;2023-10-09T01:45:01;1254.87;;;562.53;;
52642;SDS011;38531;53.296;6.614;2023-10-09T01:47:41;1216.17;;;558.97;;
52642;SDS011;38531;53.296;6.614;2023-10-09T01:50:17;1225.83;;;568.57;;
52642;SDS011;38531;53.296;6.614;2023-10-09T01:52:45;1223.70;;;553.27;;
52642;SDS011;38531;53.296;6.614;2023-10-09T01:55:11;1258.93;;;566.20;;
52642;SDS011;38531;53.296;6.614;2023-10-09T01:58:01;1218.53;;;559.97;;
52642;SDS011;38531;53.296;6.614;2023-10-09T02:00:49;1216.33;;;554.60;;
52642;SDS011;38531;53.296;6.614;2023-10-09T02:03:27;1253.60;;;561.13;;
52642;SDS011;38531;53.296;6.614;2023-10-09T02:05:54;1221.63;;;566.57;;
52642;SDS011;38531;53.296;6.614;2023-10-09T02:08:28;1249.33;;;562.13;;
52642;SDS011;38531;53.296;6.614;2023-10-09T02:10:55;1252.50;;;560.63;;
52642;SDS011;38531;53.296;6.614;2023-10-09T02:13:21;1220.40;;;572.40;;
52642;SDS011;38531;53.296;6.614;2023-10-09T02:15:59;1252.20;;;567.57;;
52642;SDS011;38531;53.296;6.614;2023-10-09T02:18:38;1213.63;;;560.03;;
52642;SDS011;38531;53.296;6.614;2023-10-09T02:21:19;1213.50;;;561.87;;
52642;SDS011;38531;53.296;6.614;2023-10-09T02:23:58;1220.80;;;569.00;;
52642;SDS011;38531;53.296;6.614;2023-10-09T02:26:29;1222.10;;;571.27;;
52642;SDS011;38531;53.296;6.614;2023-10-09T02:29:04;1212.90;;;556.30;;
52642;SDS011;38531;53.296;6.614;2023-10-09T02:31:40;1216.43;;;559.20;;
52642;SDS011;38531;53.296;6.614;2023-10-09T02:34:09;1215.87;;;556.07;;
52642;SDS011;38531;53.296;6.614;2023-10-09T02:36:39;1246.00;;;559.73;;
52642;SDS011;38531;53.296;6.614;2023-10-09T02:39:11;1217.40;;;562.90;;
52642;SDS011;38531;53.296;6.614;2023-10-09T02:41:54;1249.93;;;556.63;;
52642;SDS011;38531;53.296;6.614;2023-10-09T02:44:26;1261.00;;;564.40;;
52642;SDS011;38531;53.296;6.614;2023-10-09T02:46:59;1219.83;;;559.37;;
52642;SDS011;38531;53.296;6.614;2023-10-09T02:49:30;1261.70;;;564.93;;
52642;SDS011;38531;53.296;6.614;2023-10-09T02:51:56;1234.13;;;559.67;;
52642;SDS011;38531;53.296;6.614;2023-10-09T02:54:21;1269.87;;;570.17;;
52642;SDS011;38531;53.296;6.614;2023-10-09T02:56:48;1221.20;;;563.93;;
52642;SDS011;38531;53.296;6.614;2023-10-09T03:01:59;1221.95;;;561.08;;
52642;SDS011;38531;53.296;6.614;2023-10-09T03:04:25;1243.87;;;552.57;;
52642;SDS011;38531;53.296;6.614;2023-10-09T03:06:59;1212.00;;;547.73;;
52642;SDS011;38531;53.296;6.614;2023-10-09T03:09:26;1235.13;;;562.63;;
52642;SDS011;38531;53.296;6.614;2023-10-09T03:11:59;1233.37;;;550.40;;
52642;SDS011;38531;53.296;6.614;2023-10-09T03:14:31;1200.40;;;556.97;;
52642;SDS011;38531;53.296;6.614;2023-10-09T03:17:01;1231.87;;;558.50;;
52642;SDS011;38531;53.296;6.614;2023-10-09T03:19:33;1232.93;;;557.93;;
52642;SDS011;38531;53.296;6.614;2023-10-09T03:22:05;1199.80;;;555.63;;
52642;SDS011;38531;53.296;6.614;2023-10-09T03:24:35;1203.47;;;563.57;;
52642;SDS011;38531;53.296;6.614;2023-10-09T03:27:02;1227.53;;;557.00;;
52642;SDS011;38531;53.296;6.614;2023-10-09T03:29:28;1227.53;;;558.77;;
52642;SDS011;38531;53.296;6.614;2023-10-09T03:31:53;1233.47;;;564.53;;
52642;SDS011;38531;53.296;6.614;2023-10-09T03:34:21;1230.90;;;566.97;;
52642;SDS011;38531;53.296;6.614;2023-10-09T03:36:49;1239.20;;;567.17;;
52642;SDS011;38531;53.296;6.614;2023-10-09T03:39:24;1205.03;;;563.37;;
52642;SDS011;38531;53.296;6.614;2023-10-09T03:41:59;1197.47;;;549.50;;
52642;SDS011;38531;53.296;6.614;2023-10-09T03:44:29;1229.23;;;552.50;;
52642;SDS011;38531;53.296;6.614;2023-10-09T03:46:56;1206.97;;;566.10;;
52642;SDS011;38531;53.296;6.614;2023-10-09T03:49:21;1202.03;;;568.23;;
52642;SDS011;38531;53.296;6.614;2023-10-09T03:51:51;1200.17;;;557.90;;
52642;SDS011;38531;53.296;6.614;2023-10-09T03:54:18;1234.40;;;560.77;;
52642;SDS011;38531;53.296;6.614;2023-10-09T03:56:50;1232.93;;;566.93;;
52642;SDS011;38531;53.296;6.614;2023-10-09T03:59:17;1201.47;;;554.80;;
52642;SDS011;38531;53.296;6.614;2023-10-09T04:01:45;1203.13;;;570.57;;
52642;SDS011;38531;53.296;6.614;2023-10-09T04:04:13;1233.50;;;562.90;;
52642;SDS011;38531;53.296;6.614;2023-10-09T04:06:39;1202.87;;;557.40;;
52642;SDS011;38531;53.296;6.614;2023-10-09T04:09:08;1201.27;;;558.63;;
52642;SDS011;38531;53.296;6.614;2023-10-09T04:11:51;1205.63;;;567.77;;
52642;SDS011;38531;53.296;6.614;2023-10-09T04:14:39;1203.90;;;567.07;;
52642;SDS011;38531;53.296;6.614;2023-10-09T04:17:13;1200.47;;;560.50;;
52642;SDS011;38531;53.296;6.614;2023-10-09T04:19:58;1200.90;;;557.23;;
52642;SDS011;38531;53.296;6.614;2023-10-09T04:22:42;1198.97;;;561.60;;
52642;SDS011;38531;53.296;6.614;2023-10-09T04:25:18;1234.13;;;566.67;;
52642;SDS011;38531;53.296;6.614;2023-10-09T04:27:58;1204.73;;;561.43;;
52642;SDS011;38531;53.296;6.614;2023-10-09T04:30:40;1200.50;;;564.25;;
52642;SDS011;38531;53.296;6.614;2023-10-09T04:33:08;1229.43;;;563.50;;
52642;SDS011;38531;53.296;6.614;2023-10-09T04:35:53;1225.75;;;560.05;;
52642;SDS011;38531;53.296;6.614;2023-10-09T04:38:44;1228.00;;;562.70;;
52642;SDS011;38531;53.296;6.614;2023-10-09T04:41:28;1198.23;;;564.00;;
52642;SDS011;38531;53.296;6.614;2023-10-09T04:43:58;1232.63;;;566.03;;
52642;SDS011;38531;53.296;6.614;2023-10-09T04:46:46;1200.95;;;567.47;;
52642;SDS011;38531;53.296;6.614;2023-10-09T04:49:35;1228.57;;;562.80;;
52642;SDS011;38531;53.296;6.614;2023-10-09T04:52:31;1203.07;;;566.10;;
52642;SDS011;38531;53.296;6.614;2023-10-09T04:54:57;1208.93;;;580.03;;
52642;SDS011;38531;53.296;6.614;2023-10-09T04:57:34;1235.88;;;572.50;;
52642;SDS011;38531;53.296;6.614;2023-10-09T05:00:16;1229.53;;;566.17;;
52642;SDS011;38531;53.296;6.614;2023-10-09T05:02:55;1203.57;;;568.73;;
52642;SDS011;38531;53.296;6.614;2023-10-09T05:05:23;1200.73;;;562.90;;
52642;SDS011;38531;53.296;6.614;2023-10-09T05:08:10;1202.77;;;574.17;;
52642;SDS011;38531;53.296;6.614;2023-10-09T05:10:55;1201.70;;;573.92;;
52642;SDS011;38531;53.296;6.614;2023-10-09T05:13:28;1233.03;;;567.40;;
52642;SDS011;38531;53.296;6.614;2023-10-09T05:16:24;1233.13;;;567.13;;
52642;SDS011;38531;53.296;6.614;2023-10-09T05:18:58;1237.80;;;572.77;;
52642;SDS011;38531;53.296;6.614;2023-10-09T05:21:53;1203.00;;;566.23;;
52642;SDS011;38531;53.296;6.614;2023-10-09T05:24:23;1241.37;;;577.17;;
52642;SDS011;38531;53.296;6.614;2023-10-09T05:26:51;1204.90;;;570.03;;
52642;SDS011;38531;53.296;6.614;2023-10-09T05:31:59;1209.20;;;573.27;;
52642;SDS011;38531;53.296;6.614;2023-10-09T05:34:25;1206.03;;;574.97;;
52642;SDS011;38531;53.296;6.614;2023-10-09T05:37:05;1211.70;;;582.37;;
52642;SDS011;38531;53.296;6.614;2023-10-09T05:39:50;1210.73;;;581.60;;
52642;SDS011;38531;53.296;6.614;2023-10-09T05:45:10;1238.37;;;567.40;;
52642;SDS011;38531;53.296;6.614;2023-10-09T05:50:29;1207.90;;;571.53;;
52642;SDS011;38531;53.296;6.614;2023-10-09T05:53:25;1208.82;;;574.70;;
52642;SDS011;38531;53.296;6.614;2023-10-09T05:56:19;1206.80;;;569.97;;
52642;SDS011;38531;53.296;6.614;2023-10-09T05:58:56;1208.30;;;573.03;;
52642;SDS011;38531;53.296;6.614;2023-10-09T06:01:31;1242.80;;;574.17;;
52642;SDS011;38531;53.296;6.614;2023-10-09T06:04:25;1207.57;;;575.03;;
52642;SDS011;38531;53.296;6.614;2023-10-09T06:07:29;1208.50;;;576.80;;
52642;SDS011;38531;53.296;6.614;2023-10-09T06:10:14;1241.10;;;574.23;;
52642;SDS011;38531;53.296;6.614;2023-10-09T06:13:02;1245.27;;;579.10;;
52642;SDS011;38531;53.296;6.614;2023-10-09T06:15:28;1240.23;;;570.63;;
52642;SDS011;38531;53.296;6.614;2023-10-09T06:18:15;1215.27;;;585.43;;
52642;SDS011;38531;53.296;6.614;2023-10-09T06:20:58;1243.27;;;576.33;;
52642;SDS011;38531;53.296;6.614;2023-10-09T06:23:30;1242.20;;;576.60;;
52642;SDS011;38531;53.296;6.614;2023-10-09T06:26:29;1213.80;;;584.33;;
52642;SDS011;38531;53.296;6.614;2023-10-09T06:28:58;1209.70;;;582.70;;
52642;SDS011;38531;53.296;6.614;2023-10-09T06:31:55;1240.70;;;575.10;;
52642;SDS011;38531;53.296;6.614;2023-10-09T06:34:45;1208.23;;;572.63;;
52642;SDS011;38531;53.296;6.614;2023-10-09T06:37:17;1213.00;;;590.53;;
52642;SDS011;38531;53.296;6.614;2023-10-09T06:39:52;1212.50;;;586.83;;
52642;SDS011;38531;53.296;6.614;2023-10-09T06:42:23;1210.27;;;582.17;;
52642;SDS011;38531;53.296;6.614;2023-10-09T06:45:20;1211.13;;;587.53;;
52642;SDS011;38531;53.296;6.614;2023-10-09T06:47:46;1210.97;;;583.80;;
52642;SDS011;38531;53.296;6.614;2023-10-09T06:50:34;1213.57;;;590.27;;
52642;SDS011;38531;53.296;6.614;2023-10-09T06:53:18;1209.40;;;580.53;;
52642;SDS011;38531;53.296;6.614;2023-10-09T06:55:45;1210.10;;;583.97;;
52642;SDS011;38531;53.296;6.614;2023-10-09T06:58:23;1246.17;;;583.93;;
52642;SDS011;38531;53.296;6.614;2023-10-09T07:00:52;1210.70;;;582.00;;
52642;SDS011;38531;53.296;6.614;2023-10-09T07:03:38;1209.88;;;582.55;;
52642;SDS011;38531;53.296;6.614;2023-10-09T07:06:17;1213.13;;;592.23;;
52642;SDS011;38531;53.296;6.614;2023-10-09T07:08:50;1241.13;;;577.50;;
52642;SDS011;38531;53.296;6.614;2023-10-09T07:11:35;1237.43;;;568.97;;
52642;SDS011;38531;53.296;6.614;2023-10-09T07:14:04;1242.40;;;576.47;;
52642;SDS011;38531;53.296;6.614;2023-10-09T07:16:31;1214.07;;;594.87;;
52642;SDS011;38531;53.296;6.614;2023-10-09T07:19:06;1209.93;;;584.37;;
52642;SDS011;38531;53.296;6.614;2023-10-09T07:21:35;1209.03;;;583.90;;
52642;SDS011;38531;53.296;6.614;2023-10-09T07:24:04;1208.87;;;582.97;;
52642;SDS011;38531;53.296;6.614;2023-10-09T07:29:12;1238.70;;;570.67;;
52642;SDS011;38531;53.296;6.614;2023-10-09T07:31:44;1243.47;;;576.80;;
52642;SDS011;38531;53.296;6.614;2023-10-09T07:34:12;1216.17;;;592.00;;
52642;SDS011;38531;53.296;6.614;2023-10-09T07:36:56;1245.27;;;580.27;;
52642;SDS011;38531;53.296;6.614;2023-10-09T07:39:22;1242.10;;;577.23;;
52642;SDS011;38531;53.296;6.614;2023-10-09T07:41:48;1215.70;;;594.83;;
52642;SDS011;38531;53.296;6.614;2023-10-09T07:44:41;1245.93;;;579.63;;
52642;SDS011;38531;53.296;6.614;2023-10-09T07:47:11;1213.60;;;588.93;;
52642;SDS011;38531;53.296;6.614;2023-10-09T07:49:43;1210.63;;;595.40;;
52642;SDS011;38531;53.296;6.614;2023-10-09T07:52:14;1247.13;;;582.40;;
52642;SDS011;38531;53.296;6.614;2023-10-09T07:54:40;1216.27;;;596.30;;
52642;SDS011;38531;53.296;6.614;2023-10-09T07:57:15;1211.30;;;588.47;;
52642;SDS011;38531;53.296;6.614;2023-10-09T07:59:54;1211.97;;;595.13;;
52642;SDS011;38531;53.296;6.614;2023-10-09T08:02:24;1247.10;;;583.20;;
52642;SDS011;38531;53.296;6.614;2023-10-09T08:04:59;1243.90;;;579.37;;
52642;SDS011;38531;53.296;6.614;2023-10-09T08:07:29;1247.27;;;579.73;;
52642;SDS011;38531;53.296;6.614;2023-10-09T08:10:05;1214.27;;;593.37;;
52642;SDS011;38531;53.296;6.614;2023-10-09T08:12:38;1241.90;;;576.03;;
52642;SDS011;38531;53.296;6.614;2023-10-09T08:15:06;1247.67;;;582.13;;
52642;SDS011;38531;53.296;6.614;2023-10-09T08:17:58;1216.47;;;599.50;;
52642;SDS011;38531;53.296;6.614;2023-10-09T08:20:28;1247.73;;;580.73;;
52642;SDS011;38531;53.296;6.614;2023-10-09T08:23:14;1215.43;;;592.97;;
52642;SDS011;38531;53.296;6.614;2023-10-09T08:26:04;1242.97;;;581.60;;
52642;SDS011;38531;53.296;6.614;2023-10-09T08:28:39;1245.97;;;581.53;;
52642;SDS011;38531;53.296;6.614;2023-10-09T08:31:15;1246.47;;;575.37;;
52642;SDS011;38531;53.296;6.614;2023-10-09T08:34:02;1218.10;;;601.23;;
52642;SDS011;38531;53.296;6.614;2023-10-09T08:36:29;1245.93;;;582.23;;
52642;SDS011;38531;53.296;6.614;2023-10-09T08:39:01;1214.47;;;600.97;;
52642;SDS011;38531;53.296;6.614;2023-10-09T08:41:42;1218.90;;;611.03;;
52642;SDS011;38531;53.296;6.614;2023-10-09T08:44:07;1211.67;;;591.63;;
52642;SDS011;38531;53.296;6.614;2023-10-09T08:46:40;1217.20;;;600.53;;
52642;SDS011;38531;53.296;6.614;2023-10-09T08:49:07;1244.70;;;581.57;;
52642;SDS011;38531;53.296;6.614;2023-10-09T08:51:35;1211.27;;;597.50;;
52642;SDS011;38531;53.296;6.614;2023-10-09T08:54:02;1250.67;;;581.00;;
52642;SDS011;38531;53.296;6.614;2023-10-09T08:56:29;1248.87;;;582.77;;
52642;SDS011;38531;53.296;6.614;2023-10-09T08:58:56;1215.43;;;603.50;;
52642;SDS011;38531;53.296;6.614;2023-10-09T09:01:23;1215.07;;;602.33;;
52642;SDS011;38531;53.296;6.614;2023-10-09T09:03:49;1245.63;;;577.13;;
52642;SDS011;38531;53.296;6.614;2023-10-09T09:06:20;1219.47;;;613.60;;
52642;SDS011;38531;53.296;6.614;2023-10-09T09:08:46;1216.67;;;606.10;;
52642;SDS011;38531;53.296;6.614;2023-10-09T09:11:13;1217.57;;;606.40;;
52642;SDS011;38531;53.296;6.614;2023-10-09T09:16:32;1216.28;;;604.53;;
52642;SDS011;38531;53.296;6.614;2023-10-09T09:19:05;1249.50;;;580.83;;
52642;SDS011;38531;53.296;6.614;2023-10-09T09:21:34;1245.30;;;579.93;;
52642;SDS011;38531;53.296;6.614;2023-10-09T09:24:09;1251.20;;;581.77;;
52642;SDS011;38531;53.296;6.614;2023-10-09T09:26:48;1219.23;;;611.10;;
52642;SDS011;38531;53.296;6.614;2023-10-09T09:29:46;1259.97;;;586.90;;
52642;SDS011;38531;53.296;6.614;2023-10-09T09:32:32;1255.70;;;588.77;;
52642;SDS011;38531;53.296;6.614;2023-10-09T09:35:01;1251.80;;;581.90;;
52642;SDS011;38531;53.296;6.614;2023-10-09T09:37:30;1228.87;;;621.67;;
52642;SDS011;38531;53.296;6.614;2023-10-09T09:40:11;1254.87;;;587.07;;
52642;SDS011;38531;53.296;6.614;2023-10-09T09:42:48;1223.20;;;620.63;;
52642;SDS011;38531;53.296;6.614;2023-10-09T09:45:15;1257.07;;;585.27;;
52642;SDS011;38531;53.296;6.614;2023-10-09T09:47:45;1227.97;;;624.77;;
52642;SDS011;38531;53.296;6.614;2023-10-09T09:50:17;1258.30;;;590.10;;
52642;SDS011;38531;53.296;6.614;2023-10-09T09:52:54;1230.13;;;615.67;;
52642;SDS011;38531;53.296;6.614;2023-10-09T09:55:21;1231.03;;;629.50;;
52642;SDS011;38531;53.296;6.614;2023-10-09T09:57:56;1259.28;;;595.15;;
52642;SDS011;38531;53.296;6.614;2023-10-09T10:00:23;1261.57;;;588.00;;
52642;SDS011;38531;53.296;6.614;2023-10-09T10:03:06;1236.37;;;628.57;;
52642;SDS011;38531;53.296;6.614;2023-10-09T10:05:54;1263.43;;;586.40;;
52642;SDS011;38531;53.296;6.614;2023-10-09T10:08:22;1229.73;;;629.17;;
52642;SDS011;38531;53.296;6.614;2023-10-09T10:10:57;1262.27;;;590.13;;
52642;SDS011;38531;53.296;6.614;2023-10-09T10:16:11;1268.80;;;590.70;;
52642;SDS011;38531;53.296;6.614;2023-10-09T10:21:32;1263.10;;;589.10;;
52642;SDS011;38531;53.296;6.614;2023-10-09T10:29:36;1266.47;;;590.27;;
52642;SDS011;38531;53.296;6.614;2023-10-09T10:32:03;1263.83;;;585.30;;
52642;SDS011;38531;53.296;6.614;2023-10-09T10:40:09;1231.37;;;622.70;;
52642;SDS011;38531;53.296;6.614;2023-10-09T10:43:01;1226.73;;;606.70;;
52642;SDS011;38531;53.296;6.614;2023-10-09T10:45:44;1262.33;;;585.07;;
52642;SDS011;38531;53.296;6.614;2023-10-09T10:48:10;1259.33;;;581.37;;
52642;SDS011;38531;53.296;6.614;2023-10-09T10:51:02;1230.23;;;606.87;;
52642;SDS011;38531;53.296;6.614;2023-10-09T10:53:29;1230.93;;;618.67;;
52642;SDS011;38531;53.296;6.614;2023-10-09T10:56:12;1267.30;;;585.27;;
52642;SDS011;38531;53.296;6.614;2023-10-09T10:58:38;1265.00;;;586.33;;
52642;SDS011;38531;53.296;6.614;2023-10-09T11:01:18;1261.13;;;584.23;;
52642;SDS011;38531;53.296;6.614;2023-10-09T11:03:44;1270.57;;;585.77;;
52642;SDS011;38531;53.296;6.614;2023-10-09T11:06:25;1264.87;;;580.37;;
52642;SDS011;38531;53.296;6.614;2023-10-09T11:09:02;1230.90;;;600.63;;
52642;SDS011;38531;53.296;6.614;2023-10-09T11:11:46;1269.27;;;587.57;;
52642;SDS011;38531;53.296;6.614;2023-10-09T11:14:20;1264.57;;;584.70;;
52642;SDS011;38531;53.296;6.614;2023-10-09T11:16:52;1230.33;;;607.70;;
52642;SDS011;38531;53.296;6.614;2023-10-09T11:19:23;1223.67;;;602.97;;
52642;SDS011;38531;53.296;6.614;2023-10-09T11:21:52;1227.07;;;606.70;;
52642;SDS011;38531;53.296;6.614;2023-10-09T11:24:31;1263.40;;;585.30;;
52642;SDS011;38531;53.296;6.614;2023-10-09T11:27:03;1262.47;;;588.37;;
52642;SDS011;38531;53.296;6.614;2023-10-09T11:29:34;1231.87;;;618.87;;
52642;SDS011;38531;53.296;6.614;2023-10-09T11:32:19;1261.67;;;581.03;;
52642;SDS011;38531;53.296;6.614;2023-10-09T11:34:51;1230.07;;;621.83;;
52642;SDS011;38531;53.296;6.614;2023-10-09T11:37:34;1262.93;;;586.27;;
52642;SDS011;38531;53.296;6.614;2023-10-09T11:43:16;1230.47;;;628.00;;
52642;SDS011;38531;53.296;6.614;2023-10-09T11:45:42;1267.70;;;588.33;;
52642;SDS011;38531;53.296;6.614;2023-10-09T11:48:19;1267.37;;;583.43;;
52642;SDS011;38531;53.296;6.614;2023-10-09T11:51:14;1265.57;;;582.93;;
52642;SDS011;38531;53.296;6.614;2023-10-09T11:53:44;1236.43;;;618.90;;
52642;SDS011;38531;53.296;6.614;2023-10-09T11:56:22;1264.47;;;589.10;;
52642;SDS011;38531;53.296;6.614;2023-10-09T11:58:52;1266.40;;;584.33;;
52642;SDS011;38531;53.296;6.614;2023-10-09T12:01:19;1266.23;;;586.47;;
52642;SDS011;38531;53.296;6.614;2023-10-09T12:03:46;1243.60;;;628.57;;
52642;SDS011;38531;53.296;6.614;2023-10-09T12:06:17;1238.33;;;627.43;;
52642;SDS011;38531;53.296;6.614;2023-10-09T12:08:57;1233.57;;;616.90;;
52642;SDS011;38531;53.296;6.614;2023-10-09T12:11:23;1275.50;;;588.03;;
52642;SDS011;38531;53.296;6.614;2023-10-09T12:13:54;1275.00;;;590.80;;
52642;SDS011;38531;53.296;6.614;2023-10-09T12:16:23;1274.73;;;583.70;;
52642;SDS011;38531;53.296;6.614;2023-10-09T12:18:56;1274.77;;;580.13;;
52642;SDS011;38531;53.296;6.614;2023-10-09T12:21:22;1275.80;;;586.87;;
52642;SDS011;38531;53.296;6.614;2023-10-09T12:23:48;1275.10;;;592.23;;
52642;SDS011;38531;53.296;6.614;2023-10-09T12:26:14;1271.23;;;586.40;;
52642;SDS011;38531;53.296;6.614;2023-10-09T12:28:40;1231.40;;;607.23;;
52642;SDS011;38531;53.296;6.614;2023-10-09T12:31:10;1233.77;;;610.10;;
52642;SDS011;38531;53.296;6.614;2023-10-09T12:33:50;1266.73;;;584.40;;
52642;SDS011;38531;53.296;6.614;2023-10-09T12:36:16;1266.77;;;587.90;;
52642;SDS011;38531;53.296;6.614;2023-10-09T12:38:45;1230.50;;;614.93;;
52642;SDS011;38531;53.296;6.614;2023-10-09T12:41:23;1230.70;;;619.20;;
52642;SDS011;38531;53.296;6.614;2023-10-09T12:43:53;1267.07;;;588.90;;
52642;SDS011;38531;53.296;6.614;2023-10-09T12:46:20;1263.73;;;581.53;;
52642;SDS011;38531;53.296;6.614;2023-10-09T12:48:50;1267.17;;;590.23;;
52642;SDS011;38531;53.296;6.614;2023-10-09T12:51:19;1268.13;;;587.03;;
52642;SDS011;38531;53.296;6.614;2023-10-09T12:53:50;1233.07;;;611.00;;
52642;SDS011;38531;53.296;6.614;2023-10-09T12:56:25;1266.90;;;586.23;;
52642;SDS011;38531;53.296;6.614;2023-10-09T12:59:00;1229.43;;;614.67;;
52642;SDS011;38531;53.296;6.614;2023-10-09T13:01:27;1264.93;;;586.80;;
52642;SDS011;38531;53.296;6.614;2023-10-09T13:04:10;1224.73;;;609.53;;
52642;SDS011;38531;53.296;6.614;2023-10-09T13:06:39;1262.33;;;578.83;;
52642;SDS011;38531;53.296;6.614;2023-10-09T13:09:11;1232.13;;;613.27;;
52642;SDS011;38531;53.296;6.614;2023-10-09T13:11:44;1264.57;;;575.30;;
52642;SDS011;38531;53.296;6.614;2023-10-09T13:14:14;1261.67;;;578.67;;
52642;SDS011;38531;53.296;6.614;2023-10-09T13:16:47;1226.77;;;617.23;;
52642;SDS011;38531;53.296;6.614;2023-10-09T13:19:15;1266.93;;;586.63;;
52642;SDS011;38531;53.296;6.614;2023-10-09T13:21:42;1270.50;;;588.20;;
52642;SDS011;38531;53.296;6.614;2023-10-09T13:24:09;1273.67;;;592.23;;
52642;SDS011;38531;53.296;6.614;2023-10-09T13:26:45;1226.90;;;604.50;;
52642;SDS011;38531;53.296;6.614;2023-10-09T13:29:11;1271.97;;;587.97;;
52642;SDS011;38531;53.296;6.614;2023-10-09T13:31:38;1231.70;;;617.83;;
52642;SDS011;38531;53.296;6.614;2023-10-09T13:34:11;1276.03;;;591.10;;
52642;SDS011;38531;53.296;6.614;2023-10-09T13:36:40;1264.10;;;571.00;;
52642;SDS011;38531;53.296;6.614;2023-10-09T13:39:15;1238.15;;;614.55;;
52642;SDS011;38531;53.296;6.614;2023-10-09T13:41:54;1231.22;;;608.47;;
52642;SDS011;38531;53.296;6.614;2023-10-09T13:44:26;1233.87;;;616.70;;
52642;SDS011;38531;53.296;6.614;2023-10-09T13:46:59;1272.20;;;591.70;;
52642;SDS011;38531;53.296;6.614;2023-10-09T13:49:27;1233.40;;;623.00;;
52642;SDS011;38531;53.296;6.614;2023-10-09T13:51:55;1271.20;;;582.03;;
52642;SDS011;38531;53.296;6.614;2023-10-09T13:54:22;1270.23;;;586.07;;
52642;SDS011;38531;53.296;6.614;2023-10-09T13:56:57;1273.87;;;587.87;;
52642;SDS011;38531;53.296;6.614;2023-10-09T13:59:30;1237.80;;;616.07;;
52642;SDS011;38531;53.296;6.614;2023-10-09T14:01:56;1238.83;;;621.80;;
52642;SDS011;38531;53.296;6.614;2023-10-09T14:04:24;1274.17;;;593.57;;
52642;SDS011;38531;53.296;6.614;2023-10-09T14:06:51;1237.53;;;624.30;;
52642;SDS011;38531;53.296;6.614;2023-10-09T14:09:24;1237.73;;;616.97;;
52642;SDS011;38531;53.296;6.614;2023-10-09T14:11:59;1234.80;;;625.60;;
52642;SDS011;38531;53.296;6.614;2023-10-09T14:14:33;1231.50;;;620.33;;
52642;SDS011;38531;53.296;6.614;2023-10-09T14:17:12;1271.67;;;587.43;;
52642;SDS011;38531;53.296;6.614;2023-10-09T14:19:47;1232.80;;;614.83;;
52642;SDS011;38531;53.296;6.614;2023-10-09T14:22:16;1267.20;;;573.70;;
52642;SDS011;38531;53.296;6.614;2023-10-09T14:24:44;1271.63;;;583.57;;
52642;SDS011;38531;53.296;6.614;2023-10-09T14:27:11;1233.47;;;620.47;;
52642;SDS011;38531;53.296;6.614;2023-10-09T14:29:43;1227.10;;;617.20;;
52642;SDS011;38531;53.296;6.614;2023-10-09T14:32:13;1269.23;;;584.90;;
52642;SDS011;38531;53.296;6.614;2023-10-09T14:34:39;1267.17;;;584.30;;
52642;SDS011;38531;53.296;6.614;2023-10-09T14:37:17;1269.37;;;580.67;;
52642;SDS011;38531;53.296;6.614;2023-10-09T14:39:44;1229.17;;;613.53;;
52642;SDS011;38531;53.296;6.614;2023-10-09T14:42:16;1236.33;;;618.70;;
52642;SDS011;38531;53.296;6.614;2023-10-09T14:44:43;1237.57;;;622.47;;
52642;SDS011;38531;53.296;6.614;2023-10-09T14:47:10;1271.40;;;583.37;;
52642;SDS011;38531;53.296;6.614;2023-10-09T14:49:36;1268.63;;;583.97;;
52642;SDS011;38531;53.296;6.614;2023-10-09T14:52:04;1275.50;;;592.70;;
52642;SDS011;38531;53.296;6.614;2023-10-09T14:54:33;1274.63;;;590.53;;
52642;SDS011;38531;53.296;6.614;2023-10-09T14:56:59;1243.23;;;636.50;;
52642;SDS011;38531;53.296;6.614;2023-10-09T14:59:25;1271.83;;;590.07;;